Time;durP1;ratioP1;P1;durP2;ratioP2;P2;SDS_P1;SDS_P2;PMS_P1;PMS_P2;Temp;Humidity;BMP_temperature;BMP_pressure;BME280_temperature;BME280_humidity;BME280_pressure;Samples;Min_cycle;Max_cycle;Signal;HPM_P1;HPM_P2
2022/01/03 00:01:19;;;;;;;11.15;1.77;;;;;;;5.97;100.00;99863.13;5030784;28;21911;-79
2022/01/03 00:03:46;;;;;;;3.17;1.27;;;;;;;5.94;100.00;99858.97;4992639;28;20067;-78
2022/01/03 00:06:12;;;;;;;10.38;2.33;;;;;;;5.87;100.00;99867.78;5027165;28;20032;-79
2022/01/03 00:08:47;;;;;;;13.02;2.78;;;;;;;5.73;100.00;99842.59;5019621;28;20049;-79
2022/01/03 00:11:15;;;;;;;16.42;2.50;;;;;;;5.73;100.00;99848.78;5030069;28;20025;-78
2022/01/03 00:13:45;;;;;;;12.02;3.55;;;;;;;5.73;100.00;99854.09;4994538;28;20510;-79
2022/01/03 00:16:11;;;;;;;20.00;3.13;;;;;;;5.66;100.00;99861.13;5030391;28;20033;-79
2022/01/03 00:18:38;;;;;;;16.17;4.30;;;;;;;5.64;100.00;99862.28;5045117;28;20068;-78
2022/01/03 00:21:12;;;;;;;28.38;6.40;;;;;;;5.58;100.00;99853.09;5030271;28;20140;-82
2022/01/03 00:23:39;;;;;;;17.25;3.42;;;;;;;5.53;100.00;99843.94;5010131;28;20148;-78
2022/01/03 00:26:07;;;;;;;26.10;3.30;;;;;;;5.63;100.00;99853.44;5024498;28;20039;-79
2022/01/03 00:28:40;;;;;;;17.30;2.75;;;;;;;5.64;100.00;99841.78;5027027;28;20044;-79
2022/01/03 00:31:05;;;;;;;14.75;3.60;;;;;;;5.83;100.00;99855.78;4995639;28;21092;-78
2022/01/03 00:33:32;;;;;;;20.75;2.75;;;;;;;5.81;100.00;99855.94;5014127;28;20377;-80
2022/01/03 00:36:04;;;;;;;25.73;3.40;;;;;;;5.81;100.00;99855.94;4994857;28;20036;-79
2022/01/03 00:38:32;;;;;;;17.38;2.53;;;;;;;5.84;100.00;99855.59;5003273;28;20061;-79
2022/01/03 00:40:59;;;;;;;17.30;3.38;;;;;;;5.78;100.00;99842.94;5028730;28;20057;-79
2022/01/03 00:43:25;;;;;;;22.67;3.47;;;;;;;5.85;100.00;99840.44;4992693;28;20482;-78
2022/01/03 00:45:55;;;;;;;12.13;2.22;;;;;;;5.96;100.00;99840.13;5025975;28;20309;-78
2022/01/03 00:48:21;;;;;;;19.67;4.63;;;;;;;5.99;100.00;99844.31;5039130;28;20066;-78
2022/01/03 00:50:47;;;;;;;20.08;3.75;;;;;;;6.14;100.00;99846.13;5012744;28;20468;-79
2022/01/03 00:53:13;;;;;;;42.28;4.75;;;;;;;6.25;100.00;99844.09;5024020;28;20037;-81
2022/01/03 00:56:02;;;;;;;30.23;4.00;;;;;;;6.15;100.00;99815.75;5008423;28;20067;-79
2022/01/03 00:58:47;;;;;;;21.95;3.45;;;;;;;6.24;100.00;99831.72;5024748;28;20084;-79
2022/01/03 01:01:13;;;;;;;15.15;2.90;;;;;;;6.25;100.00;99830.75;5025947;28;20139;-79
2022/01/03 01:03:40;;;;;;;12.60;3.40;;;;;;;6.31;100.00;99832.72;4992985;28;20517;-78
2022/01/03 01:06:07;;;;;;;16.05;3.45;;;;;;;6.43;100.00;99835.84;4995112;28;20072;-80
2022/01/03 01:08:37;;;;;;;25.27;4.43;;;;;;;6.54;100.00;99822.16;5027464;28;20040;-79
2022/01/03 01:11:07;;;;;;;27.95;3.90;;;;;;;6.77;100.00;99827.53;5023248;28;20033;-78
2022/01/03 01:13:35;;;;;;;19.58;4.15;;;;;;;6.89;100.00;99818.16;5022742;28;20033;-79
2022/01/03 01:16:06;;;;;;;20.65;3.38;;;;;;;7.10;100.00;99811.34;5026788;28;20037;-79
2022/01/03 01:18:35;;;;;;;12.10;3.58;;;;;;;7.26;100.00;99824.63;5006418;28;20037;-79
2022/01/03 01:21:03;;;;;;;20.70;3.90;;;;;;;7.30;100.00;99825.91;5009526;28;20048;-78
2022/01/03 01:23:29;;;;;;;38.90;4.30;;;;;;;7.22;100.00;99815.28;5028684;28;20049;-77
2022/01/03 01:28:20;;;;;;;26.38;4.55;;;;;;;7.03;100.00;99830.75;5007955;28;20395;-78
2022/01/03 01:30:48;;;;;;;23.05;4.05;;;;;;;7.02;100.00;99828.28;5009918;28;20037;-79
2022/01/03 01:33:16;;;;;;;15.40;3.10;;;;;;;6.98;100.00;99826.94;5036269;28;20502;-79
2022/01/03 01:35:47;;;;;;;25.10;4.93;;;;;;;6.97;100.00;99828.78;5029193;28;20055;-78
2022/01/03 01:38:18;;;;;;;32.30;4.47;;;;;;;6.94;100.00;99822.97;4994137;28;20171;-79
2022/01/03 01:40:49;;;;;;;12.98;2.47;;;;;;;6.85;100.00;99819.50;5023207;28;20032;-79
2022/01/03 01:43:25;;;;;;;19.25;4.15;;;;;;;6.87;100.00;99816.66;4990790;28;20041;-79
2022/01/03 01:45:51;;;;;;;28.05;3.65;;;;;;;6.85;100.00;99807.97;5025695;28;20415;-79
2022/01/03 01:48:18;;;;;;;32.70;4.38;;;;;;;6.89;100.00;99802.09;5043592;28;20068;-79
2022/01/03 01:50:47;;;;;;;22.60;3.38;;;;;;;6.93;100.00;99810.59;5009749;28;20037;-79
2022/01/03 01:53:15;;;;;;;28.60;4.43;;;;;;;6.95;100.00;99812.09;4990524;28;20025;-79
2022/01/03 01:55:44;;;;;;;26.58;4.63;;;;;;;6.91;100.00;99809.97;4992011;28;20402;-79
2022/01/03 01:58:29;;;;;;;19.27;3.85;;;;;;;6.95;100.00;99809.41;5007860;28;20053;-79
2022/01/03 02:01:04;;;;;;;36.80;5.55;;;;;;;7.06;100.00;99808.19;5040722;28;20041;-80
2022/01/03 02:03:47;;;;;;;35.92;5.25;;;;;;;7.18;100.00;99816.66;5027190;28;20029;-79
2022/01/03 02:06:27;;;;;;;10.85;3.72;;;;;;;7.01;100.00;99803.38;5001961;28;20044;-78
2022/01/03 02:09:09;;;;;;;24.10;3.90;;;;;;;6.81;100.00;99789.63;5013405;28;20159;-78
2022/01/03 02:11:49;;;;;;;32.40;4.03;;;;;;;6.72;100.00;99792.50;5005067;28;20177;-77
2022/01/03 02:14:15;;;;;;;30.42;4.47;;;;;;;6.75;100.00;99803.69;4983180;28;20073;-77
2022/01/03 02:16:42;;;;;;;23.65;3.63;;;;;;;6.81;100.00;99804.81;5019665;28;20041;-78
2022/01/03 02:19:08;;;;;;;18.83;2.92;;;;;;;6.80;100.00;99811.16;5026191;28;20025;-78
2022/01/03 02:21:34;;;;;;;23.15;4.60;;;;;;;6.85;100.00;99800.78;5024631;28;20492;-79
2022/01/03 02:23:59;;;;;;;29.42;3.83;;;;;;;6.82;100.00;99799.28;4988136;28;20061;-79
2022/01/03 02:26:28;;;;;;;21.77;3.92;;;;;;;6.87;100.00;99801.44;5040924;28;20124;-79
2022/01/03 02:28:54;;;;;;;64.18;7.32;;;;;;;6.99;100.00;99793.88;5022052;28;20040;-80
2022/01/03 02:31:21;;;;;;;33.47;4.43;;;;;;;7.01;100.00;99779.34;5017287;28;20042;-78
2022/01/03 02:33:47;;;;;;;34.05;4.22;;;;;;;7.27;100.00;99781.63;5019182;28;20039;-79
2022/01/03 02:36:13;;;;;;;28.30;4.00;;;;;;;7.41;100.00;99797.91;5007914;28;20037;-80
2022/01/03 02:38:38;;;;;;;30.05;5.70;;;;;;;7.52;100.00;99794.84;5009015;28;20041;-79
2022/01/03 02:41:04;;;;;;;24.65;4.43;;;;;;;7.58;100.00;99787.94;4987530;28;20041;-78
2022/01/03 02:43:29;;;;;;;25.15;3.65;;;;;;;7.56;100.00;99790.78;4991947;28;20384;-79
2022/01/03 02:45:55;;;;;;;27.77;3.72;;;;;;;7.58;100.00;99790.63;5024341;28;22009;-78
2022/01/03 02:48:22;;;;;;;39.13;5.57;;;;;;;7.63;100.00;99797.09;5007149;28;20042;-78
2022/01/03 02:50:48;;;;;;;20.27;4.20;;;;;;;7.70;100.00;99800.72;5055685;28;20156;-77
2022/01/03 02:53:14;;;;;;;20.63;3.90;;;;;;;7.68;100.00;99799.22;5006756;28;20124;-78
2022/01/03 02:55:39;;;;;;;33.65;4.78;;;;;;;7.53;100.00;99795.66;5019508;28;20159;-80
2022/01/03 02:58:07;;;;;;;22.05;4.32;;;;;;;7.42;100.00;99789.72;5008084;28;20045;-78
2022/01/03 03:00:37;;;;;;;15.15;3.35;;;;;;;7.30;100.00;99780.44;5021826;28;20087;-77
2022/01/03 03:03:03;;;;;;;25.13;4.95;;;;;;;7.16;100.00;99775.88;5018344;28;20040;-77
2022/01/03 03:05:29;;;;;;;27.48;4.25;;;;;;;7.12;100.00;99779.91;5018805;28;20474;-79
2022/01/03 03:07:55;;;;;;;17.17;3.78;;;;;;;7.15;100.00;99788.44;5021149;28;20033;-80
2022/01/03 03:10:24;;;;;;;29.85;5.07;;;;;;;7.18;100.00;99787.25;4994184;28;20040;-79
2022/01/03 03:12:50;;;;;;;25.48;4.70;;;;;;;7.25;100.00;99788.16;5008023;28;20036;-78
2022/01/03 03:15:16;;;;;;;32.35;4.20;;;;;;;7.30;100.00;99784.97;5001341;28;20037;-78
2022/01/03 03:17:43;;;;;;;26.65;4.30;;;;;;;7.31;100.00;99786.66;5021976;28;20455;-78
2022/01/03 03:20:15;;;;;;;30.42;5.20;;;;;;;7.26;100.00;99774.63;5020793;28;20022;-80
2022/01/03 03:22:41;;;;;;;18.20;4.20;;;;;;;7.29;100.00;99776.13;5001698;28;20052;-77
2022/01/03 03:25:16;;;;;;;33.50;4.55;;;;;;;7.24;100.00;99781.19;4991501;28;20132;-77
2022/01/03 03:27:44;;;;;;;35.88;5.43;;;;;;;7.25;100.00;99777.47;5021477;28;20044;-79
2022/01/03 03:30:11;;;;;;;43.97;6.75;;;;;;;7.33;100.00;99761.41;5004207;28;20488;-79
2022/01/03 03:32:37;;;;;;;33.50;5.75;;;;;;;7.55;100.00;99766.91;5021995;28;20025;-78
2022/01/03 03:35:03;;;;;;;50.67;5.38;;;;;;;7.65;100.00;99765.63;4991722;28;21916;-77
2022/01/03 03:37:29;;;;;;;32.25;4.40;;;;;;;7.65;100.00;99754.94;5026520;28;20029;-78
2022/01/03 03:39:54;;;;;;;24.42;6.00;;;;;;;7.79;100.00;99760.50;4986567;28;20033;-77
2022/01/03 03:42:20;;;;;;;26.98;4.25;;;;;;;7.85;100.00;99763.25;5009526;28;20033;-77
2022/01/03 03:44:46;;;;;;;34.90;4.70;;;;;;;7.83;100.00;99759.97;5022189;28;20040;-77
2022/01/03 03:47:12;;;;;;;25.88;4.43;;;;;;;7.79;100.00;99755.16;5007512;28;20111;-78
2022/01/03 03:49:38;;;;;;;27.38;4.25;;;;;;;7.81;100.00;99758.47;5004136;28;21870;-78
2022/01/03 03:52:04;;;;;;;24.38;4.05;;;;;;;7.95;99.78;99757.66;5010083;28;20045;-80
2022/01/03 03:54:31;;;;;;;13.27;2.90;;;;;;;8.01;98.68;99761.44;5016402;28;20187;-80
2022/01/03 03:56:57;;;;;;;23.75;4.47;;;;;;;8.06;97.91;99753.69;5003297;28;20041;-77
2022/01/03 03:59:24;;;;;;;29.42;3.80;;;;;;;8.11;96.79;99752.09;5002701;28;20117;-77
2022/01/03 04:01:50;;;;;;;20.25;3.67;;;;;;;8.03;97.27;99752.19;4990440;28;20040;-79
2022/01/03 04:04:17;;;;;;;22.42;3.30;;;;;;;7.93;99.02;99751.63;5008184;28;20103;-78
2022/01/03 04:06:42;;;;;;;26.45;3.72;;;;;;;7.83;100.00;99754.59;5007230;28;20041;-78
2022/01/03 04:09:08;;;;;;;26.23;3.50;;;;;;;7.85;99.71;99744.53;5009093;28;20430;-78
2022/01/03 04:11:36;;;;;;;20.08;4.15;;;;;;;7.73;100.00;99740.66;4991273;28;20065;-78
2022/01/03 04:14:02;;;;;;;29.98;4.53;;;;;;;7.52;100.00;99733.31;5025140;28;20041;-77
2022/01/03 04:16:27;;;;;;;32.35;4.53;;;;;;;7.42;100.00;99744.25;5010374;28;20438;-77
2022/01/03 04:18:53;;;;;;;21.83;5.88;;;;;;;7.43;100.00;99721.84;4992910;28;20487;-79
2022/01/03 04:21:19;;;;;;;20.40;4.45;;;;;;;7.57;100.00;99732.75;5009174;28;20127;-78
2022/01/03 04:23:45;;;;;;;29.13;4.75;;;;;;;7.54;100.00;99728.63;5011686;28;20033;-78
2022/01/03 04:26:11;;;;;;;31.83;5.30;;;;;;;7.47;100.00;99717.81;5021181;28;20200;-78
2022/01/03 04:28:38;;;;;;;28.38;5.07;;;;;;;7.54;100.00;99733.13;5039137;28;20041;-79
2022/01/03 04:31:04;;;;;;;30.15;5.10;;;;;;;7.58;100.00;99731.75;5020363;28;20056;-78
2022/01/03 04:33:29;;;;;;;28.23;4.63;;;;;;;7.62;100.00;99714.31;4991258;28;20480;-78
2022/01/03 04:35:55;;;;;;;27.48;4.15;;;;;;;7.72;100.00;99720.25;4994385;28;20037;-80
2022/01/03 04:38:21;;;;;;;29.95;5.50;;;;;;;7.83;100.00;99724.31;5007185;28;20083;-79
2022/01/03 04:40:46;;;;;;;33.45;5.75;;;;;;;7.79;100.00;99723.84;5027032;28;20104;-78
2022/01/03 04:43:12;;;;;;;38.55;5.57;;;;;;;7.75;100.00;99730.56;5009170;28;20044;-77
2022/01/03 04:45:38;;;;;;;26.00;4.32;;;;;;;7.64;100.00;99723.81;4993123;28;20041;-79
2022/01/03 04:48:04;;;;;;;32.85;5.25;;;;;;;7.61;100.00;99718.00;4996905;28;20037;-79
2022/01/03 04:50:30;;;;;;;19.27;3.90;;;;;;;7.48;100.00;99713.28;5009518;28;20116;-79
2022/01/03 04:52:56;;;;;;;24.60;5.05;;;;;;;7.49;100.00;99718.47;5025321;28;20120;-79
2022/01/03 04:55:21;;;;;;;27.33;4.88;;;;;;;7.51;100.00;99704.06;4991302;28;20069;-78
2022/01/03 04:57:47;;;;;;;28.45;5.55;;;;;;;7.45;100.00;99692.25;5026727;28;20471;-78
2022/01/03 05:00:13;;;;;;;28.50;4.80;;;;;;;7.49;100.00;99710.44;5026136;28;20033;-79
2022/01/03 05:02:39;;;;;;;31.10;4.65;;;;;;;7.65;100.00;99700.59;4995545;28;20487;-77
2022/01/03 05:05:06;;;;;;;24.23;3.92;;;;;;;7.75;99.49;99711.84;5028251;28;20099;-77
2022/01/03 05:07:32;;;;;;;25.25;4.28;;;;;;;7.84;98.72;99716.09;5041850;28;20091;-78
2022/01/03 05:09:57;;;;;;;26.50;4.28;;;;;;;7.93;98.09;99714.16;5012558;28;20037;-77
2022/01/03 05:12:23;;;;;;;25.95;4.55;;;;;;;8.04;97.49;99710.19;5007496;28;20044;-78
2022/01/03 05:14:49;;;;;;;26.20;4.32;;;;;;;8.22;95.49;99713.31;5046314;28;20106;-78
2022/01/03 05:17:14;;;;;;;18.08;4.25;;;;;;;8.34;94.21;99709.16;4993054;28;20036;-78
2022/01/03 05:19:40;;;;;;;20.70;3.83;;;;;;;8.47;92.86;99678.25;5043190;28;20047;-78
2022/01/03 05:22:06;;;;;;;28.65;3.80;;;;;;;8.54;90.88;99706.75;5010333;28;20068;-78
2022/01/03 05:24:34;;;;;;;29.15;4.88;;;;;;;8.51;91.17;99692.91;4992206;28;20526;-79
2022/01/03 05:27:01;;;;;;;21.95;3.65;;;;;;;8.37;91.73;99687.34;5019883;28;20468;-78
2022/01/03 05:29:28;;;;;;;25.42;3.72;;;;;;;8.38;90.77;99707.75;5001741;28;20483;-79
2022/01/03 05:31:54;;;;;;;31.20;4.22;;;;;;;8.36;90.63;99695.56;5028607;28;20033;-80
2022/01/03 05:34:22;;;;;;;32.60;5.30;;;;;;;8.43;90.39;99707.22;5011085;28;20029;-78
2022/01/03 05:36:48;;;;;;;10.10;3.28;;;;;;;8.28;90.83;99720.63;4991282;28;20044;-78
2022/01/03 05:39:14;;;;;;;22.45;5.10;;;;;;;8.18;91.39;99713.88;5010609;28;20037;-78
2022/01/03 05:41:41;;;;;;;23.88;4.72;;;;;;;8.15;91.77;99718.63;4983038;28;20038;-77
2022/01/03 05:44:07;;;;;;;26.17;4.32;;;;;;;8.10;92.08;99722.88;5039489;28;20025;-79
2022/01/03 05:46:34;;;;;;;17.17;3.35;;;;;;;7.96;92.22;99721.00;4987625;28;20730;-79
2022/01/03 05:49:00;;;;;;;23.75;3.95;;;;;;;7.92;92.44;99729.41;5021551;28;20514;-77
2022/01/03 05:51:25;;;;;;;13.10;3.00;;;;;;;7.83;93.07;99716.28;4993932;28;20186;-77
2022/01/03 05:53:53;;;;;;;17.35;2.13;;;;;;;7.81;93.55;99732.53;4998621;28;20112;-78
2022/01/03 05:56:19;;;;;;;9.27;1.92;;;;;;;7.86;92.94;99729.31;5029710;28;20120;-79
2022/01/03 05:58:45;;;;;;;19.77;2.80;;;;;;;7.81;93.18;99735.22;5020913;28;20029;-78
2022/01/03 06:01:11;;;;;;;23.25;3.00;;;;;;;7.86;93.74;99730.16;5024652;28;20030;-77
2022/01/03 06:03:39;;;;;;;20.33;3.25;;;;;;;7.83;93.54;99713.59;5029384;28;20064;-79
2022/01/03 06:08:30;;;;;;;20.13;2.75;;;;;;;7.88;93.59;99709.34;5021852;28;20042;-78
2022/01/03 06:10:56;;;;;;;24.65;8.43;;;;;;;7.82;93.99;99710.09;5008995;28;20244;-78
2022/01/03 06:13:23;;;;;;;24.50;4.03;;;;;;;7.80;93.68;99704.09;5029852;28;20030;-77
2022/01/03 06:15:48;;;;;;;14.63;3.08;;;;;;;7.98;93.48;99706.41;4992348;28;20065;-78
2022/01/03 06:18:15;;;;;;;11.57;2.53;;;;;;;8.11;92.70;99700.41;5025324;28;20079;-77
2022/01/03 06:20:42;;;;;;;18.17;4.00;;;;;;;8.20;92.38;99703.81;5038749;28;20037;-78
2022/01/03 06:23:08;;;;;;;13.05;2.30;;;;;;;8.03;93.82;99703.19;4993372;28;20041;-78
2022/01/03 06:25:34;;;;;;;27.25;3.85;;;;;;;7.87;96.60;99706.88;5042165;28;20454;-78
2022/01/03 06:28:00;;;;;;;21.48;3.88;;;;;;;7.60;98.72;99687.75;4992042;28;20059;-80
2022/01/03 06:30:26;;;;;;;15.23;2.70;;;;;;;7.50;100.00;99684.53;5005296;28;20464;-78
2022/01/03 06:32:52;;;;;;;20.58;4.10;;;;;;;7.54;100.00;99693.00;5008588;28;20041;-77
2022/01/03 06:35:18;;;;;;;27.38;3.53;;;;;;;7.59;99.96;99695.97;5023691;28;20076;-78
2022/01/03 06:37:44;;;;;;;17.17;3.58;;;;;;;7.59;100.00;99695.97;5030194;28;20037;-77
2022/01/03 06:40:10;;;;;;;25.15;3.85;;;;;;;7.46;100.00;99694.75;5021830;28;20029;-78
2022/01/03 06:42:35;;;;;;;20.15;3.65;;;;;;;7.41;100.00;99702.50;5005453;28;20056;-77
2022/01/03 06:45:01;;;;;;;22.92;5.43;;;;;;;7.30;100.00;99694.88;5003171;28;20132;-78
2022/01/03 06:47:27;;;;;;;26.83;3.28;;;;;;;7.17;100.00;99689.31;4987778;28;20065;-79
2022/01/03 06:49:52;;;;;;;25.08;4.78;;;;;;;7.00;100.00;99685.97;5014098;28;20042;-79
2022/01/03 06:52:18;;;;;;;27.95;3.67;;;;;;;6.86;100.00;99676.88;5004485;28;20033;-79
2022/01/03 06:54:44;;;;;;;22.83;3.50;;;;;;;6.86;100.00;99692.91;4999464;28;20037;-78
2022/01/03 06:57:10;;;;;;;39.13;5.63;;;;;;;6.53;100.00;99631.69;4988204;28;20043;-79
2022/01/03 06:59:36;;;;;;;8.68;2.53;;;;;;;6.77;100.00;99678.78;5006469;28;20037;-78
2022/01/03 07:02:02;;;;;;;16.02;3.58;;;;;;;6.70;100.00;99674.31;4990035;28;20136;-78
2022/01/03 07:04:28;;;;;;;20.30;3.90;;;;;;;6.77;100.00;99669.91;5021724;28;20083;-78
2022/01/03 07:06:54;;;;;;;29.23;4.55;;;;;;;6.88;100.00;99666.84;5006255;28;20491;-79
2022/01/03 07:09:20;;;;;;;49.20;7.53;;;;;;;6.88;100.00;99666.84;5022110;28;20487;-78
2022/01/03 07:11:45;;;;;;;25.35;4.30;;;;;;;6.83;100.00;99653.19;5005476;28;20034;-77
2022/01/03 07:19:48;;;;;;;30.77;4.50;;;;;;;6.96;100.00;99632.03;5023459;28;20040;-79
2022/01/03 07:22:14;;;;;;;22.48;3.15;;;;;;;7.02;100.00;99650.03;5018860;28;20036;-78
2022/01/03 07:24:41;;;;;;;29.17;5.35;;;;;;;7.05;100.00;99640.81;5009550;28;20044;-78
2022/01/03 07:27:09;;;;;;;36.22;5.43;;;;;;;7.18;100.00;99637.53;5028998;28;20487;-78
2022/01/03 07:29:36;;;;;;;22.23;4.15;;;;;;;7.19;100.00;99641.84;4995117;28;20399;-79
2022/01/03 07:32:01;;;;;;;40.03;5.55;;;;;;;7.23;100.00;99643.16;5007827;28;20037;-78
2022/01/03 07:34:28;;;;;;;26.67;4.22;;;;;;;7.34;100.00;99636.53;5009153;28;20033;-78
2022/01/03 07:36:53;;;;;;;27.77;3.63;;;;;;;7.34;100.00;99637.38;5009968;28;20030;-78
2022/01/03 07:39:19;;;;;;;16.98;3.00;;;;;;;7.40;100.00;99644.66;5001714;28;20357;-77
2022/01/03 07:41:45;;;;;;;19.25;4.00;;;;;;;7.44;100.00;99659.34;4990821;28;20133;-79
2022/01/03 07:44:11;;;;;;;21.45;3.78;;;;;;;7.38;100.00;99657.41;5023402;28;20041;-78
2022/01/03 07:46:36;;;;;;;21.80;4.50;;;;;;;7.26;100.00;99646.28;4994493;28;20044;-78
2022/01/03 07:49:03;;;;;;;24.77;3.97;;;;;;;7.18;100.00;99648.22;4992129;28;20056;-78
2022/01/03 07:51:28;;;;;;;17.70;3.95;;;;;;;7.01;100.00;99655.53;5010970;28;20033;-79
2022/01/03 07:53:54;;;;;;;14.88;2.50;;;;;;;6.94;100.00;99665.31;4995558;28;20045;-78
2022/01/03 07:56:23;;;;;;;23.38;4.55;;;;;;;6.87;100.00;99661.66;5022282;28;20030;-79
2022/01/03 07:58:49;;;;;;;21.27;3.80;;;;;;;6.78;100.00;99664.41;5023069;28;20041;-78
2022/01/03 08:01:14;;;;;;;33.33;4.45;;;;;;;6.61;100.00;99652.16;5014022;28;20037;-78
2022/01/03 08:03:40;;;;;;;30.75;4.28;;;;;;;6.58;100.00;99669.38;5006105;28;20475;-78
2022/01/03 08:06:08;;;;;;;22.45;3.65;;;;;;;6.55;100.00;99664.38;5011385;28;20136;-79
2022/01/03 08:08:34;;;;;;;17.20;3.33;;;;;;;6.55;100.00;99666.22;5034279;28;20048;-79
2022/01/03 08:11:00;;;;;;;19.40;2.17;;;;;;;6.50;100.00;99656.06;5006049;28;20145;-79
2022/01/03 08:13:25;;;;;;;17.25;2.70;;;;;;;6.48;100.00;99657.25;5015952;28;20112;-79
2022/01/03 08:15:51;;;;;;;16.50;2.63;;;;;;;6.56;100.00;99659.88;4999948;28;20037;-79
2022/01/03 08:18:17;;;;;;;9.13;1.98;;;;;;;6.72;100.00;99672.28;5032802;28;20045;-79
2022/01/03 08:20:43;;;;;;;19.10;2.90;;;;;;;6.80;100.00;99666.88;5015098;28;20426;-79
2022/01/03 08:23:08;;;;;;;12.18;1.98;;;;;;;6.85;100.00;99658.34;4998387;28;20042;-82
2022/01/03 08:25:37;;;;;;;6.97;3.08;;;;;;;6.93;100.00;99680.50;4998327;28;20041;-80
2022/01/03 08:28:07;;;;;;;11.80;2.45;;;;;;;6.91;100.00;99695.88;5001133;28;20187;-80
2022/01/03 08:30:33;;;;;;;3.78;1.00;;;;;;;6.79;100.00;99676.75;5012746;28;20407;-78
2022/01/03 08:32:59;;;;;;;11.88;1.38;;;;;;;6.68;100.00;99647.78;5029739;28;20033;-78
2022/01/03 08:35:25;;;;;;;0.43;0.43;;;;;;;6.66;100.00;99665.00;5015085;28;20030;-79
2022/01/03 08:37:51;;;;;;;2.00;0.95;;;;;;;6.58;100.00;99666.69;4998098;28;20091;-79
2022/01/03 08:40:18;;;;;;;0.80;0.80;;;;;;;6.45;100.00;99671.78;4994681;28;20030;-78
2022/01/03 08:42:43;;;;;;;0.52;0.40;;;;;;;6.33;100.00;99682.03;5026201;28;20649;-79
2022/01/03 08:45:09;;;;;;;0.52;0.50;;;;;;;6.28;100.00;99667.56;4995648;28;20075;-78
2022/01/03 08:47:35;;;;;;;0.93;0.93;;;;;;;6.36;100.00;99676.34;4996378;28;20026;-79
2022/01/03 08:50:01;;;;;;;0.55;0.55;;;;;;;6.44;100.00;99667.47;4995438;28;20365;-79
2022/01/03 08:52:27;;;;;;;0.40;0.40;;;;;;;6.49;100.00;99670.44;4995641;28;20037;-79
2022/01/03 08:54:53;;;;;;;0.40;0.40;;;;;;;6.47;100.00;99683.13;5028358;28;20497;-78
2022/01/03 08:57:21;;;;;;;0.40;0.40;;;;;;;6.34;100.00;99670.34;5012329;28;20040;-79
2022/01/03 08:59:47;;;;;;;0.40;0.40;;;;;;;6.30;100.00;99669.06;5021887;28;20389;-78
2022/01/03 09:02:12;;;;;;;0.40;0.40;;;;;;;6.30;100.00;99663.72;5029912;28;20040;-78
2022/01/03 09:04:39;;;;;;;1.05;1.05;;;;;;;6.20;100.00;99662.25;5012840;28;20119;-86
2022/01/03 09:07:05;;;;;;;2.70;0.70;;;;;;;6.13;100.00;99668.28;5030538;28;20033;-84
2022/01/03 09:09:32;;;;;;;0.77;0.50;;;;;;;6.13;100.00;99660.28;5032787;28;20070;-85
2022/01/03 09:12:01;;;;;;;0.40;0.40;;;;;;;6.05;100.00;99657.63;5032418;28;20029;-85
2022/01/03 09:14:26;;;;;;;0.40;0.40;;;;;;;6.09;100.00;99671.50;4998607;28;20483;-87
2022/01/03 09:16:52;;;;;;;0.50;0.50;;;;;;;5.93;100.00;99657.19;4998854;28;20055;-85
2022/01/03 09:19:18;;;;;;;0.45;0.45;;;;;;;6.03;100.00;99675.66;5013817;28;20039;-85
2022/01/03 09:21:44;;;;;;;7.32;0.80;;;;;;;5.99;100.00;99668.19;5012617;28;20120;-85
2022/01/03 09:24:26;;;;;;;0.60;0.60;;;;;;;5.99;100.00;99669.00;5027085;28;20471;-85
2022/01/03 09:29:36;;;;;;;0.82;0.82;;;;;;;6.11;100.00;99688.13;5030914;28;20026;-85
2022/01/03 09:32:03;;;;;;;0.50;0.50;;;;;;;6.22;100.00;99693.13;5014822;28;20587;-85
2022/01/03 09:34:28;;;;;;;1.08;0.80;;;;;;;6.34;100.00;99666.84;4994551;28;20086;-82
2022/01/03 09:36:54;;;;;;;0.50;0.50;;;;;;;6.75;100.00;99691.47;5030562;28;20167;-86
2022/01/03 09:39:20;;;;;;;0.63;0.60;;;;;;;7.01;100.00;99707.16;5027716;28;20471;-86
2022/01/03 09:42:04;;;;;;;0.50;0.50;;;;;;;7.27;100.00;99692.56;5011509;28;20123;-86
2022/01/03 09:44:32;;;;;;;0.82;0.82;;;;;;;7.52;100.00;99687.84;5011191;28;20044;-86
2022/01/03 09:47:00;;;;;;;0.50;0.50;;;;;;;7.96;100.00;99686.19;5006354;28;20055;-86
2022/01/03 09:49:26;;;;;;;0.50;0.50;;;;;;;7.88;100.00;99687.13;5011679;28;20542;-85
2022/01/03 09:51:52;;;;;;;0.93;0.93;;;;;;;7.47;100.00;99690.22;5011446;28;20037;-86
2022/01/03 09:54:20;;;;;;;0.50;0.50;;;;;;;7.19;100.00;99685.44;4996196;28;20079;-85
2022/01/03 09:56:46;;;;;;;0.50;0.50;;;;;;;7.24;100.00;99684.91;5009429;28;20034;-86
2022/01/03 09:59:13;;;;;;;0.80;0.80;;;;;;;7.56;100.00;99680.28;5013812;28;20036;-86
2022/01/03 10:01:40;;;;;;;0.73;0.73;;;;;;;8.19;100.00;99678.06;5031650;28;20060;-84
2022/01/03 10:04:05;;;;;;;0.75;0.75;;;;;;;8.38;100.00;99672.94;5032968;28;20108;-86
2022/01/03 10:06:31;;;;;;;0.40;0.40;;;;;;;8.29;100.00;99668.72;5031021;28;20082;-84
2022/01/03 10:09:00;;;;;;;0.40;0.40;;;;;;;8.27;100.00;99668.06;4997983;28;20483;-84
2022/01/03 10:11:26;;;;;;;0.60;0.60;;;;;;;8.34;100.00;99670.84;5013209;28;20036;-83
2022/01/03 10:13:52;;;;;;;0.40;0.40;;;;;;;8.45;100.00;99672.25;4995631;28;20044;-86
2022/01/03 10:16:21;;;;;;;0.90;0.73;;;;;;;8.45;100.00;99640.09;4996944;28;20037;-86
2022/01/03 10:18:47;;;;;;;0.50;0.50;;;;;;;8.59;100.00;99655.28;5012615;28;20041;-87
2022/01/03 10:21:32;;;;;;;0.60;0.60;;;;;;;8.42;100.00;99657.38;5031210;28;20033;-86
2022/01/03 10:23:58;;;;;;;0.40;0.40;;;;;;;8.30;100.00;99653.47;5014329;28;20033;-85
2022/01/03 10:26:24;;;;;;;1.90;1.50;;;;;;;8.20;100.00;99640.38;4998286;28;20048;-84
2022/01/03 10:28:51;;;;;;;0.60;0.60;;;;;;;8.58;100.00;99656.31;5030148;28;20029;-86
2022/01/03 10:31:22;;;;;;;2.53;0.93;;;;;;;9.76;100.00;99645.91;5014279;28;20391;-86
2022/01/03 10:34:05;;;;;;;0.50;0.50;;;;;;;10.45;100.00;99636.94;5026092;28;20034;-86
2022/01/03 10:36:31;;;;;;;;;;;;;;;10.85;100.00;99640.56;5004385;28;20051;-87
2022/01/03 10:38:59;;;;;;;6.25;1.58;;;;;;;10.13;100.00;99655.41;4996360;28;20390;-83
2022/01/03 10:41:25;;;;;;;1.40;0.60;;;;;;;9.31;100.00;99653.44;4995221;28;20041;-86
2022/01/03 10:43:54;;;;;;;3.83;0.70;;;;;;;8.91;100.00;99655.81;5026830;28;20503;-85
2022/01/03 10:46:23;;;;;;;6.57;3.03;;;;;;;9.14;100.00;99669.00;4982245;28;20087;-86
2022/01/03 10:48:49;;;;;;;4.15;1.35;;;;;;;9.30;100.00;99663.34;5009957;28;20091;-84
2022/01/03 10:51:27;;;;;;;4.20;1.38;;;;;;;9.71;100.00;99661.78;4981134;28;20531;-85
2022/01/03 10:53:54;;;;;;;2.80;1.00;;;;;;;10.76;100.00;99671.34;5028769;28;20120;-86
2022/01/03 10:56:28;;;;;;;1.25;0.90;;;;;;;10.19;100.00;99686.84;5043811;28;20111;-86
2022/01/03 10:58:56;;;;;;;1.20;0.70;;;;;;;9.47;100.00;99666.56;5009224;28;20139;-87
2022/01/03 11:01:33;;;;;;;0.82;0.73;;;;;;;9.16;100.00;99659.75;5028565;28;20033;-86
2022/01/03 11:04:01;;;;;;;4.97;1.20;;;;;;;9.74;100.00;99653.31;4997383;28;20037;-85
2022/01/03 11:11:42;;;;;;;2.65;1.10;;;;;;;9.41;100.00;99657.44;5029940;28;20045;-85
2022/01/03 11:14:09;;;;;;;0.77;0.52;;;;;;;8.87;100.00;99668.75;4995731;28;20442;-84
2022/01/03 11:16:42;;;;;;;2.47;1.00;;;;;;;8.46;100.00;99661.31;5009454;28;20052;-85
2022/01/03 11:19:09;;;;;;;5.25;1.38;;;;;;;8.21;100.00;99671.50;5012104;28;20029;-85
2022/01/03 11:21:44;;;;;;;1.90;1.08;;;;;;;8.28;100.00;99661.72;4996676;28;20046;-85
2022/01/03 11:24:14;;;;;;;0.50;0.50;;;;;;;8.45;100.00;99640.91;5012217;28;20056;-85
2022/01/03 11:26:46;;;;;;;6.78;1.30;;;;;;;8.63;100.00;99669.16;5012491;28;20068;-84
2022/01/03 11:29:16;;;;;;;4.78;1.45;;;;;;;8.86;100.00;99661.72;5012515;28;20068;-85
2022/01/03 11:31:42;;;;;;;0.70;0.70;;;;;;;9.03;100.00;99639.00;4992406;28;20050;-85
2022/01/03 11:34:09;;;;;;;1.35;1.25;;;;;;;9.97;100.00;99647.69;5016632;28;20099;-85
2022/01/03 11:36:36;;;;;;;0.40;0.40;;;;;;;9.67;100.00;99650.63;5046621;28;20041;-83
2022/01/03 11:39:09;;;;;;;0.50;0.50;;;;;;;8.85;100.00;99632.44;5012144;28;20099;-85
2022/01/03 11:41:36;;;;;;;1.37;0.87;;;;;;;8.35;100.00;99641.19;5009086;28;20034;-85
2022/01/03 11:44:03;;;;;;;2.75;0.93;;;;;;;8.36;100.00;99636.66;5021132;28;20269;-84
2022/01/03 11:46:29;;;;;;;0.93;0.93;;;;;;;9.31;100.00;99634.69;5013091;28;20243;-85
2022/01/03 11:48:56;;;;;;;0.60;0.60;;;;;;;10.79;100.00;99609.09;4996051;28;20033;-84